Time;durP1;ratioP1;P1;durP2;ratioP2;P2;SDS_P1;SDS_P2;PMS_P1;PMS_P2;Temp;Humidity;BMP_temperature;BMP_pressure;BME280_temperature;BME280_humidity;BME280_pressure;Samples;Min_cycle;Max_cycle;Signal;HPM_P1;HPM_P2
2022/11/02 00:00:24;;;;;;;8.60;2.10;;;;;;;18.31;48.07;101284.13;5052195;28;20055;-66
2022/11/02 00:02:50;;;;;;;7.75;2.08;;;;;;;18.29;48.01;101278.00;5050832;28;20098;-65
2022/11/02 00:05:23;;;;;;;7.45;1.63;;;;;;;18.26;48.00;101283.72;5051182;28;20045;-66
2022/11/02 00:07:51;;;;;;;8.13;2.45;;;;;;;18.26;48.00;101272.00;5051226;28;20064;-66
2022/11/02 00:10:19;;;;;;;8.55;1.92;;;;;;;18.24;48.51;101271.28;5052247;28;20045;-66
2022/11/02 00:12:46;;;;;;;9.43;1.90;;;;;;;18.21;48.18;101268.88;5070459;28;20052;-66
2022/11/02 00:15:13;;;;;;;10.52;2.42;;;;;;;18.22;48.24;101259.69;5071076;28;20115;-66
2022/11/02 00:17:42;;;;;;;7.38;1.90;;;;;;;18.21;48.37;101275.16;5070701;28;20033;-66
2022/11/02 00:20:11;;;;;;;6.60;2.13;;;;;;;18.21;48.22;101272.44;5067801;28;20498;-67
2022/11/02 00:22:38;;;;;;;9.80;2.08;;;;;;;18.18;48.47;101270.00;5033750;28;20049;-66
2022/11/02 00:25:11;;;;;;;9.10;2.20;;;;;;;18.14;48.65;101268.59;5050908;28;20067;-66
2022/11/02 00:27:39;;;;;;;9.02;1.80;;;;;;;18.12;48.64;101257.03;5051704;28;20061;-66
2022/11/02 00:30:07;;;;;;;8.02;2.00;;;;;;;18.10;48.64;101269.91;5050784;28;20091;-66
2022/11/02 00:32:33;;;;;;;10.43;2.35;;;;;;;18.08;48.47;101264.59;5032049;28;20044;-65
2022/11/02 00:35:02;;;;;;;8.55;2.00;;;;;;;18.05;48.86;101259.47;5050729;28;20033;-65
2022/11/02 00:37:28;;;;;;;8.52;2.10;;;;;;;18.04;48.48;101271.34;5066270;28;20052;-65
2022/11/02 00:39:55;;;;;;;8.07;2.83;;;;;;;18.02;48.82;101262.47;5070594;28;20077;-65
2022/11/02 00:42:22;;;;;;;9.20;2.15;;;;;;;18.02;48.90;101267.06;5044304;28;20083;-66
2022/11/02 00:44:52;;;;;;;7.53;2.15;;;;;;;17.98;48.70;101255.63;5032860;28;20041;-65
2022/11/02 00:47:18;;;;;;;7.53;1.83;;;;;;;17.98;48.97;101261.06;5050608;28;20048;-66
2022/11/02 00:49:45;;;;;;;13.00;2.58;;;;;;;17.95;48.54;101261.34;5069594;28;20463;-65
2022/11/02 00:52:12;;;;;;;6.57;1.50;;;;;;;17.91;48.72;101265.38;5052411;28;20048;-66
2022/11/02 00:54:39;;;;;;;6.05;2.33;;;;;;;17.87;48.93;101266.66;5070529;28;20115;-65
2022/11/02 00:57:05;;;;;;;7.15;1.52;;;;;;;17.85;48.59;101260.53;5070485;28;20048;-66
2022/11/02 00:59:32;;;;;;;6.82;1.98;;;;;;;17.84;49.01;101264.25;5030091;28;1076226;-66
2022/11/02 01:01:58;;;;;;;6.07;2.03;;;;;;;17.84;49.00;101266.09;5050756;28;20117;-66
2022/11/02 01:04:30;;;;;;;7.63;1.40;;;;;;;17.82;48.90;101276.22;5033394;28;20461;-66
2022/11/02 01:06:57;;;;;;;6.90;1.83;;;;;;;17.82;48.94;101278.94;5051060;28;20060;-66
2022/11/02 01:09:23;;;;;;;10.75;2.25;;;;;;;17.79;49.05;101272.78;5051034;28;20434;-66
2022/11/02 01:11:50;;;;;;;8.25;1.67;;;;;;;17.76;49.13;101288.53;5055149;28;20044;-66
2022/11/02 01:14:21;;;;;;;7.15;1.88;;;;;;;17.74;48.94;101285.09;5071277;28;20048;-66
2022/11/02 01:16:48;;;;;;;3.92;1.63;;;;;;;17.72;49.46;101287.97;5071049;28;20059;-65
2022/11/02 01:19:17;;;;;;;5.97;1.40;;;;;;;17.71;49.20;101290.81;5053143;28;20090;-66
2022/11/02 01:21:43;;;;;;;6.63;2.20;;;;;;;17.68;49.29;101297.41;5070900;28;20455;-65
2022/11/02 01:24:14;;;;;;;9.77;1.80;;;;;;;17.68;49.56;101291.09;5062562;28;20037;-66
2022/11/02 01:26:40;;;;;;;8.45;2.33;;;;;;;17.67;49.59;101294.81;5032960;28;20041;-67
2022/11/02 01:29:07;;;;;;;6.80;1.85;;;;;;;17.65;49.57;101294.94;5050956;28;20474;-66
2022/11/02 01:31:33;;;;;;;5.38;1.77;;;;;;;17.62;49.43;101297.94;5050707;28;20041;-66
2022/11/02 01:34:02;;;;;;;4.68;1.38;;;;;;;17.59;49.31;101306.38;5032963;28;20079;-67
2022/11/02 01:36:28;;;;;;;4.53;1.73;;;;;;;17.59;49.43;101308.22;5033386;28;20071;-66
2022/11/02 01:38:55;;;;;;;4.63;1.60;;;;;;;17.57;49.67;101310.25;5051086;28;20491;-66
2022/11/02 01:41:22;;;;;;;8.32;2.58;;;;;;;17.56;49.30;101303.09;5049620;28;20114;-66
2022/11/02 01:43:53;;;;;;;5.68;1.52;;;;;;;17.55;49.38;101307.66;5070798;28;20086;-66
2022/11/02 01:46:27;;;;;;;7.07;1.80;;;;;;;17.55;49.59;101312.25;5071082;28;20052;-67
2022/11/02 01:49:06;;;;;;;4.85;1.80;;;;;;;17.51;49.46;101310.81;5069342;28;20425;-66
2022/11/02 01:51:44;;;;;;;6.65;1.95;;;;;;;17.48;49.17;101311.94;5070323;28;20033;-66
2022/11/02 01:54:16;;;;;;;10.18;1.77;;;;;;;17.45;49.25;101318.53;5070739;28;20517;-66
2022/11/02 01:56:47;;;;;;;6.05;1.63;;;;;;;17.45;49.11;101314.94;5052924;28;20052;-66
2022/11/02 01:59:18;;;;;;;6.05;1.75;;;;;;;17.43;49.21;101323.25;5066216;28;20394;-66
2022/11/02 02:01:46;;;;;;;9.20;1.58;;;;;;;17.42;49.25;101321.53;5029368;28;20103;-66
2022/11/02 02:04:16;;;;;;;5.55;1.63;;;;;;;17.42;48.79;101321.53;5029471;28;20511;-66
2022/11/02 02:06:43;;;;;;;9.05;1.80;;;;;;;17.43;48.61;101322.38;5030625;28;20042;-66
2022/11/02 02:09:10;;;;;;;5.50;1.42;;;;;;;17.41;48.56;101336.09;5031367;28;20495;-65
2022/11/02 02:11:39;;;;;;;5.13;1.40;;;;;;;17.39;48.82;101329.94;5035660;28;20569;-66
2022/11/02 02:14:15;;;;;;;5.38;1.50;;;;;;;17.37;48.38;101336.53;5054412;28;20064;-66
2022/11/02 02:17:07;;;;;;;7.47;1.42;;;;;;;17.35;48.34;101333.94;5052949;28;20045;-66
2022/11/02 02:19:45;;;;;;;4.82;1.73;;;;;;;17.34;48.34;101325.94;5052657;28;20044;-66
2022/11/02 02:22:36;;;;;;;9.07;1.60;;;;;;;17.33;48.78;101329.66;5052034;28;20114;-66
2022/11/02 02:25:40;;;;;;;6.72;1.63;;;;;;;17.31;48.45;101320.78;5043329;28;20048;-66
2022/11/02 02:28:25;;;;;;;4.82;1.50;;;;;;;17.33;48.88;101322.38;5069354;28;20045;-66
2022/11/02 02:31:09;;;;;;;6.95;1.55;;;;;;;17.32;48.41;101322.50;5053854;28;20033;-66
2022/11/02 02:33:59;;;;;;;5.88;1.23;;;;;;;17.32;48.34;101331.53;5051821;28;20103;-66
2022/11/02 02:36:36;;;;;;;8.48;1.45;;;;;;;17.33;48.44;101316.94;5053971;28;20044;-66
2022/11/02 02:39:22;;;;;;;4.45;1.55;;;;;;;17.31;48.68;101324.38;5052425;28;20073;-66
2022/11/02 02:41:58;;;;;;;6.75;1.38;;;;;;;17.30;48.50;101336.22;5050619;28;20044;-66
2022/11/02 02:44:32;;;;;;;6.20;1.40;;;;;;;17.30;48.49;101336.22;5034383;28;20414;-66
2022/11/02 02:47:05;;;;;;;5.50;1.58;;;;;;;17.30;48.46;101333.50;5032282;28;20045;-67
2022/11/02 02:49:41;;;;;;;5.88;1.38;;;;;;;17.28;48.50;101330.09;5033785;28;20041;-66
2022/11/02 02:52:08;;;;;;;;;;;;;;;17.25;48.27;101330.38;5037898;28;20049;-66
2022/11/02 02:54:42;;;;;;;6.85;1.98;;;;;;;17.28;48.44;101337.38;5053416;28;19927;-65
2022/11/02 02:57:13;;;;;;;5.88;2.00;;;;;;;17.25;48.84;101337.66;5053879;28;20042;-66
2022/11/02 02:59:43;;;;;;;7.75;1.50;;;;;;;17.20;48.34;101345.34;5062932;28;20025;-66
2022/11/02 03:02:18;;;;;;;4.80;1.30;;;;;;;17.17;48.58;101342.91;5055099;28;20036;-65
2022/11/02 03:04:47;;;;;;;7.63;1.80;;;;;;;17.16;48.98;101339.34;5061906;28;20507;-66
2022/11/02 03:07:22;;;;;;;11.10;2.38;;;;;;;17.14;48.69;101342.19;5053058;28;20056;-66
2022/11/02 03:10:05;;;;;;;9.20;1.90;;;;;;;17.11;48.69;101358.75;5035230;28;20040;-66
2022/11/02 03:12:42;;;;;;;7.72;1.90;;;;;;;17.08;49.04;101355.44;5043776;28;20045;-66
2022/11/02 03:15:20;;;;;;;8.18;1.50;;;;;;;17.05;48.77;101350.28;5073247;28;20028;-65
2022/11/02 03:18:06;;;;;;;6.95;2.10;;;;;;;17.02;49.20;101340.56;5072841;28;20140;-65
2022/11/02 03:21:00;;;;;;;9.00;1.80;;;;;;;17.00;49.08;101348.00;5053743;28;20516;-65
2022/11/02 03:24:05;;;;;;;6.28;1.77;;;;;;;16.96;48.91;101343.84;5038422;28;20083;-66
2022/11/02 03:27:02;;;;;;;8.63;1.75;;;;;;;16.94;48.84;101356.69;5052951;28;20055;-66
2022/11/02 03:29:46;;;;;;;5.10;1.73;;;;;;;16.93;48.87;101352.25;5019645;28;20067;-66
2022/11/02 03:32:21;;;;;;;6.63;2.17;;;;;;;16.95;49.29;101357.53;5034794;28;20037;-66
2022/11/02 03:35:01;;;;;;;8.45;2.30;;;;;;;16.93;48.84;101357.69;5060966;28;20036;-66
2022/11/02 03:37:39;;;;;;;7.05;2.33;;;;;;;16.88;49.01;101367.22;5072798;28;20124;-66
2022/11/02 03:40:23;;;;;;;7.30;1.85;;;;;;;16.84;49.20;101369.34;5054406;28;20041;-66
2022/11/02 03:42:53;;;;;;;8.65;1.90;;;;;;;16.80;49.21;101371.47;5053878;28;20051;-65
2022/11/02 03:45:30;;;;;;;6.53;1.98;;;;;;;16.79;49.45;101368.91;5054751;28;20041;-66
2022/11/02 03:48:03;;;;;;;6.05;2.05;;;;;;;16.79;49.25;101363.47;5054292;28;20053;-65
2022/11/02 03:50:32;;;;;;;9.13;1.60;;;;;;;16.80;49.31;101379.63;5069115;28;20052;-65
2022/11/02 03:53:20;;;;;;;11.57;2.35;;;;;;;16.77;49.47;101365.47;5054195;28;20421;-66
2022/11/02 03:55:54;;;;;;;7.82;1.70;;;;;;;16.77;49.03;101379.03;5054590;28;20147;-66
2022/11/02 03:58:21;;;;;;;9.15;2.10;;;;;;;16.76;49.13;101380.03;5054124;28;20082;-66
2022/11/02 04:00:54;;;;;;;8.32;1.77;;;;;;;16.75;49.14;101387.31;5064506;28;20041;-67
2022/11/02 04:03:23;;;;;;;11.80;2.35;;;;;;;16.75;49.31;101379.16;5033840;28;20041;-65
2022/11/02 04:05:52;;;;;;;6.45;1.75;;;;;;;16.74;49.37;101376.59;5034209;28;20140;-65
2022/11/02 04:08:36;;;;;;;7.82;1.80;;;;;;;16.75;49.55;101389.16;5034162;28;20128;-65
2022/11/02 04:16:43;;;;;;;12.40;2.33;;;;;;;16.68;48.94;101394.25;5071819;28;20043;-65
2022/11/02 04:19:27;;;;;;;11.02;2.22;;;;;;;16.66;49.14;101400.81;5054046;28;20404;-65
2022/11/02 04:27:49;;;;;;;8.52;2.58;;;;;;;16.65;49.18;101421.66;5053973;28;20044;-65
2022/11/02 04:30:21;;;;;;;10.20;2.05;;;;;;;16.64;49.24;101414.47;5048747;28;20105;-66
2022/11/02 04:36:07;;;;;;;9.60;1.95;;;;;;;16.64;49.59;101425.31;4996310;28;20052;-67
2022/11/02 04:38:41;;;;;;;8.57;2.22;;;;;;;16.63;49.18;101429.03;5033627;28;20033;-66
2022/11/02 04:44:22;;;;;;;9.13;2.08;;;;;;;16.61;49.30;101435.59;5050069;28;20154;-66
2022/11/02 04:47:00;;;;;;;;;;;;;;;16.62;49.71;101440.88;5034989;28;20067;-65
2022/11/02 04:49:30;;;;;;;7.10;2.00;;;;;;;16.65;49.42;101437.94;5051049;28;19920;-65
2022/11/02 04:51:57;;;;;;;9.40;1.90;;;;;;;16.64;49.57;101451.59;5069813;28;20040;-65
2022/11/02 04:54:28;;;;;;;7.03;2.22;;;;;;;16.64;49.23;101448.88;5053530;28;20049;-65
2022/11/02 04:56:58;;;;;;;10.38;1.88;;;;;;;16.64;49.55;101457.00;5053417;28;20759;-65
2022/11/02 04:59:27;;;;;;;8.23;1.80;;;;;;;16.65;49.58;101466.88;5049782;28;20503;-65
2022/11/02 05:01:53;;;;;;;8.23;2.15;;;;;;;16.65;49.78;101456.91;5045007;28;20030;-65
2022/11/02 05:04:24;;;;;;;10.25;2.60;;;;;;;16.66;49.58;101463.19;5031273;28;20099;-66
2022/11/02 05:06:51;;;;;;;10.77;2.50;;;;;;;16.65;49.23;101472.28;5029896;28;20052;-66
2022/11/02 05:09:21;;;;;;;8.90;2.63;;;;;;;16.65;49.43;101481.31;5029946;28;20034;-65
2022/11/02 05:11:48;;;;;;;9.77;2.08;;;;;;;16.63;49.19;101477.84;5031422;28;20450;-65
2022/11/02 05:14:17;;;;;;;7.97;2.10;;;;;;;16.60;49.38;101478.13;5051290;28;20039;-66
2022/11/02 05:16:43;;;;;;;9.75;2.05;;;;;;;16.60;49.37;101474.53;5051085;28;20163;-65
2022/11/02 05:19:12;;;;;;;10.52;2.13;;;;;;;16.59;49.41;101476.41;5049944;28;20060;-66
2022/11/02 05:21:38;;;;;;;7.35;2.08;;;;;;;16.57;49.55;101488.38;5049086;28;20049;-65
2022/11/02 05:24:11;;;;;;;11.65;2.05;;;;;;;16.53;49.37;101491.34;5031105;28;20084;-68
2022/11/02 05:26:38;;;;;;;12.60;1.98;;;;;;;16.53;49.77;101498.63;5030906;28;20049;-66
2022/11/02 05:29:05;;;;;;;8.50;2.03;;;;;;;16.53;49.32;101502.19;5029881;28;20042;-66
2022/11/02 05:31:32;;;;;;;10.90;2.70;;;;;;;16.56;49.43;101513.75;5029609;28;20038;-65
2022/11/02 05:33:59;;;;;;;10.05;2.20;;;;;;;16.57;49.46;101510.91;5031705;28;20056;-65
2022/11/02 05:36:26;;;;;;;12.27;2.30;;;;;;;16.59;49.52;101518.91;5051964;28;20554;-66
2022/11/02 05:38:54;;;;;;;9.73;2.08;;;;;;;16.59;49.73;101518.91;5051536;28;20114;-66
2022/11/02 05:41:22;;;;;;;9.30;2.10;;;;;;;16.59;49.55;101527.91;5049391;28;20128;-66
2022/11/02 05:43:51;;;;;;;12.02;2.58;;;;;;;16.59;49.92;101525.22;5050494;28;20159;-65
2022/11/02 05:46:19;;;;;;;8.35;1.73;;;;;;;16.59;49.90;101535.19;5053551;28;20049;-65
2022/11/02 05:48:46;;;;;;;11.95;2.58;;;;;;;16.59;49.55;101541.47;5054673;28;20044;-66
2022/11/02 05:51:12;;;;;;;7.90;2.08;;;;;;;16.58;49.64;101541.59;5053645;28;20044;-66
2022/11/02 05:53:39;;;;;;;8.77;2.50;;;;;;;16.58;49.87;101541.59;5054374;28;20041;-66
2022/11/02 05:56:10;;;;;;;9.98;2.10;;;;;;;16.56;49.69;101549.88;5055014;28;20037;-66
2022/11/02 05:58:36;;;;;;;10.98;2.72;;;;;;;16.58;49.59;101556.03;5055418;28;20053;-66
2022/11/02 06:01:05;;;;;;;9.93;2.05;;;;;;;16.59;49.82;101562.31;5065237;28;20341;-65
2022/11/02 06:03:32;;;;;;;8.15;2.03;;;;;;;16.60;49.84;101561.31;5054227;28;20091;-66
2022/11/02 06:06:02;;;;;;;9.85;2.35;;;;;;;16.59;49.79;101573.16;5054623;28;20121;-65
2022/11/02 06:08:37;;;;;;;10.70;1.70;;;;;;;16.57;49.54;101573.28;5054267;28;20060;-66
2022/11/02 06:11:05;;;;;;;8.43;1.90;;;;;;;16.57;49.67;101577.84;5054148;28;20045;-67
2022/11/02 06:13:32;;;;;;;12.52;2.03;;;;;;;16.55;49.72;101583.41;5069899;28;20109;-66
2022/11/02 06:16:02;;;;;;;12.88;2.25;;;;;;;16.52;49.66;101594.50;5074366;28;20106;-67
2022/11/02 06:18:30;;;;;;;8.68;2.08;;;;;;;16.48;49.55;101593.91;5074225;28;20060;-67
2022/11/02 06:20:57;;;;;;;6.07;2.08;;;;;;;16.47;49.32;101603.03;5074092;28;20079;-66
2022/11/02 06:23:25;;;;;;;8.60;2.28;;;;;;;16.43;49.48;101615.13;5072066;28;20036;-66
2022/11/02 06:25:54;;;;;;;9.23;2.03;;;;;;;16.41;49.43;101617.09;5074397;28;20742;-66
2022/11/02 06:28:21;;;;;;;10.40;2.30;;;;;;;16.37;49.53;101621.06;5074209;28;20048;-66
2022/11/02 06:30:48;;;;;;;9.60;1.48;;;;;;;16.33;49.31;101618.69;5055867;28;20127;-66
2022/11/02 06:33:16;;;;;;;8.88;1.92;;;;;;;16.30;49.71;101627.09;5073602;28;20044;-66
2022/11/02 06:35:47;;;;;;;10.05;3.03;;;;;;;16.29;49.91;101633.50;5072227;28;20441;-66
2022/11/02 06:38:14;;;;;;;8.40;1.80;;;;;;;16.28;49.82;101645.31;5073649;28;20053;-66
2022/11/02 06:40:41;;;;;;;9.40;2.33;;;;;;;16.27;49.67;101646.31;5073409;28;20063;-66
2022/11/02 06:43:07;;;;;;;9.48;2.28;;;;;;;16.23;49.97;101653.84;5072646;28;20083;-66
2022/11/02 06:45:46;;;;;;;11.07;2.33;;;;;;;16.19;49.58;101652.34;5056704;28;20047;-66
2022/11/02 06:48:12;;;;;;;6.03;1.83;;;;;;;16.18;49.75;101670.47;5070557;28;20078;-66
2022/11/02 06:50:39;;;;;;;7.63;2.28;;;;;;;16.16;50.08;101674.28;5072707;28;20048;-64
2022/11/02 06:53:05;;;;;;;10.93;2.45;;;;;;;16.14;49.98;101668.13;5073558;28;20110;-66
2022/11/02 06:55:32;;;;;;;11.10;2.10;;;;;;;16.11;50.23;101680.09;5072269;28;20135;-67
2022/11/02 06:57:59;;;;;;;7.93;1.85;;;;;;;16.09;50.00;101687.47;5073428;28;20048;-66
2022/11/02 07:00:26;;;;;;;6.53;1.85;;;;;;;16.05;50.33;101695.97;5071627;28;20549;-67
2022/11/02 07:03:00;;;;;;;7.10;1.98;;;;;;;16.04;50.24;101696.97;5071843;28;20232;-66
2022/11/02 07:05:28;;;;;;;6.80;1.67;;;;;;;16.03;50.16;101700.66;5071841;28;20041;-67
2022/11/02 07:07:55;;;;;;;9.45;2.80;;;;;;;16.01;50.34;101708.06;5071697;28;20040;-67
2022/11/02 07:10:22;;;;;;;10.65;2.10;;;;;;;16.00;50.55;101715.31;5071868;28;20041;-67
2022/11/02 07:12:53;;;;;;;7.55;1.90;;;;;;;16.00;50.23;101723.44;5051671;28;20033;-66
2022/11/02 07:15:23;;;;;;;9.38;2.05;;;;;;;16.01;50.40;101724.31;5071507;28;20093;-67
2022/11/02 07:17:50;;;;;;;11.50;2.58;;;;;;;16.01;50.09;101719.75;5054041;28;20078;-67
2022/11/02 07:20:17;;;;;;;6.03;1.50;;;;;;;16.02;50.44;101731.44;5073159;28;20044;-67
2022/11/02 07:22:58;;;;;;;12.27;2.25;;;;;;;16.02;50.58;101745.00;5070909;28;20044;-66
2022/11/02 07:25:30;;;;;;;8.32;1.80;;;;;;;16.02;50.27;101750.41;5073163;28;20044;-66
2022/11/02 07:28:00;;;;;;;12.57;2.45;;;;;;;16.01;50.42;101754.13;5072953;28;20433;-66
2022/11/02 07:30:28;;;;;;;11.30;2.47;;;;;;;16.00;50.75;101763.22;5072791;28;20052;-66
2022/11/02 07:32:55;;;;;;;8.20;1.80;;;;;;;16.01;50.45;101756.81;5072401;28;20032;-67
2022/11/02 07:35:26;;;;;;;7.05;2.08;;;;;;;16.02;50.49;101769.38;5071272;28;20049;-65
2022/11/02 07:37:56;;;;;;;7.22;2.20;;;;;;;16.04;50.66;101775.53;5072222;28;20029;-66
2022/11/02 07:40:22;;;;;;;13.43;2.17;;;;;;;16.09;50.39;101776.91;5072628;28;20036;-66
2022/11/02 07:42:49;;;;;;;10.20;1.95;;;;;;;16.13;50.29;101777.53;5062473;28;20067;-65
2022/11/02 07:45:20;;;;;;;8.38;1.92;;;;;;;16.17;50.61;101781.72;5034703;28;20136;-66
2022/11/02 07:47:48;;;;;;;7.65;1.80;;;;;;;16.21;50.40;101785.91;5052627;28;20048;-65
2022/11/02 07:50:18;;;;;;;7.68;1.75;;;;;;;16.26;50.47;101789.09;5052515;28;20377;-65
2022/11/02 07:52:51;;;;;;;8.48;2.10;;;;;;;16.32;50.39;101785.03;5052260;28;20147;-65
2022/11/02 07:55:21;;;;;;;8.02;1.95;;;;;;;16.37;50.78;101781.00;5052470;28;20048;-65
2022/11/02 07:57:56;;;;;;;11.80;1.95;;;;;;;16.44;50.79;101792.22;5067255;28;20437;-66
2022/11/02 08:00:24;;;;;;;8.98;1.95;;;;;;;16.51;50.30;101798.88;5069878;28;20145;-65
2022/11/02 08:02:55;;;;;;;11.02;1.90;;;;;;;16.57;50.25;101800.22;5055661;28;20049;-66
2022/11/02 08:05:27;;;;;;;10.35;2.30;;;;;;;16.61;50.11;101804.41;5057081;28;20498;-70
2022/11/02 08:08:08;;;;;;;10.05;2.17;;;;;;;16.65;50.41;101805.88;5051651;28;20102;-67
2022/11/02 08:10:36;;;;;;;12.70;2.53;;;;;;;16.70;50.19;101809.13;5051404;28;20045;-67
2022/11/02 08:13:11;;;;;;;12.88;2.05;;;;;;;16.72;50.14;101818.00;5054746;28;20033;-70
2022/11/02 08:15:40;;;;;;;9.35;1.90;;;;;;;16.73;50.17;101820.56;5072700;28;20040;-70
2022/11/02 08:18:21;;;;;;;8.73;1.88;;;;;;;16.72;50.35;101818.84;5072402;28;20560;-70
2022/11/02 08:20:48;;;;;;;7.00;2.33;;;;;;;16.70;50.11;101828.97;5071194;28;20102;-70
2022/11/02 08:23:17;;;;;;;10.30;2.22;;;;;;;16.69;49.96;101826.38;5071321;28;20671;-70
2022/11/02 08:25:46;;;;;;;7.97;1.90;;;;;;;16.69;50.46;101824.53;5071793;28;20044;-70
2022/11/02 08:28:15;;;;;;;8.63;2.38;;;;;;;16.72;50.48;101820.69;5070627;28;20048;-70
2022/11/02 08:30:42;;;;;;;9.70;1.70;;;;;;;16.74;50.08;101822.31;5069735;28;20052;-71
2022/11/02 08:33:14;;;;;;;8.90;1.90;;;;;;;16.77;50.67;101832.91;5069631;28;20041;-70
2022/11/02 08:35:43;;;;;;;7.65;2.13;;;;;;;16.84;50.24;101833.25;5070025;28;20110;-71
2022/11/02 08:38:11;;;;;;;6.50;1.70;;;;;;;16.91;50.47;101833.63;5069927;28;20048;-70
2022/11/02 08:40:38;;;;;;;10.32;2.42;;;;;;;16.98;50.10;101838.41;5069750;28;20550;-70
2022/11/02 08:43:09;;;;;;;7.28;1.70;;;;;;;17.08;50.39;101841.22;5070303;28;20041;-70
2022/11/02 08:45:38;;;;;;;6.40;1.80;;;;;;;17.19;50.44;101841.25;5071724;28;20455;-70
2022/11/02 08:48:26;;;;;;;6.88;1.90;;;;;;;17.34;50.08;101849.97;5071310;28;20071;-70
2022/11/02 08:50:53;;;;;;;5.93;2.20;;;;;;;17.48;50.01;101858.66;5070975;28;20037;-70
2022/11/02 08:53:19;;;;;;;10.80;2.03;;;;;;;17.62;49.74;101856.63;5071050;28;20110;-72
2022/11/02 08:55:47;;;;;;;8.20;2.05;;;;;;;17.73;50.18;101865.63;5064677;28;20033;-71
2022/11/02 08:58:13;;;;;;;10.48;2.20;;;;;;;17.85;49.91;101866.47;5051384;28;20095;-68
2022/11/02 09:00:40;;;;;;;5.65;2.25;;;;;;;17.98;49.85;101866.28;5069758;28;20044;-68
2022/11/02 09:03:12;;;;;;;9.93;2.28;;;;;;;18.08;49.70;101875.38;5059236;28;20112;-67
2022/11/02 09:05:45;;;;;;;8.35;1.73;;;;;;;18.20;49.20;101870.72;5071368;28;20490;-67
2022/11/02 09:08:15;;;;;;;11.52;1.92;;;;;;;18.32;49.24;101881.38;5071073;28;20530;-67
2022/11/02 09:10:43;;;;;;;6.35;1.60;;;;;;;18.43;49.33;101880.44;5061214;28;20053;-67
2022/11/02 09:13:12;;;;;;;11.70;3.17;;;;;;;18.54;49.10;101872.19;5061953;28;20036;-68
2022/11/02 09:15:42;;;;;;;7.32;2.38;;;;;;;18.63;48.61;101867.88;5051123;28;20091;-67
2022/11/02 09:18:09;;;;;;;7.05;1.80;;;;;;;18.72;48.40;101865.19;5052886;28;20057;-69
2022/11/02 09:20:35;;;;;;;8.35;2.00;;;;;;;18.77;48.19;101874.78;5054898;28;20049;-73
2022/11/02 09:23:03;;;;;;;11.50;2.53;;;;;;;18.85;48.17;101877.69;5054708;28;20041;-69
2022/11/02 09:25:31;;;;;;;6.68;2.13;;;;;;;18.93;48.17;101875.13;5066427;28;20094;-69
2022/11/02 09:27:58;;;;;;;7.45;2.30;;;;;;;19.00;47.86;101879.88;5070259;28;20045;-68
2022/11/02 09:30:27;;;;;;;9.70;2.33;;;;;;;19.09;47.99;101882.78;5074906;28;20067;-69
2022/11/02 09:32:58;;;;;;;5.75;1.90;;;;;;;19.15;47.25;101882.22;5074728;28;20410;-68
2022/11/02 09:35:28;;;;;;;8.75;2.25;;;;;;;19.22;46.89;101884.25;5075433;28;20056;-69
2022/11/02 09:37:55;;;;;;;10.35;2.20;;;;;;;19.32;46.96;101878.81;5075794;28;20032;-69
2022/11/02 09:40:24;;;;;;;12.30;2.63;;;;;;;19.39;46.75;101881.88;5074017;28;20119;-69
2022/11/02 09:43:04;;;;;;;7.03;1.75;;;;;;;19.44;46.72;101875.00;5072775;28;20048;-70
2022/11/02 09:45:57;;;;;;;6.95;1.75;;;;;;;19.51;46.52;101891.63;5074511;28;20055;-68
2022/11/02 09:48:37;;;;;;;6.50;1.83;;;;;;;19.56;45.97;101890.25;5074549;28;20036;-69
2022/11/02 09:51:15;;;;;;;8.07;2.60;;;;;;;19.58;46.00;101892.81;5072651;28;20045;-70
2022/11/02 09:53:59;;;;;;;5.47;1.60;;;;;;;19.60;46.06;101899.84;5074148;28;20078;-69
2022/11/02 09:56:28;;;;;;;7.50;1.67;;;;;;;19.72;45.73;101897.00;5074463;28;20048;-70
2022/11/02 09:59:16;;;;;;;12.75;2.38;;;;;;;19.78;45.98;101905.47;5074191;28;20097;-69
2022/11/02 10:02:17;;;;;;;9.15;1.90;;;;;;;19.88;45.80;101900.00;5057567;28;20040;-69
2022/11/02 10:05:02;;;;;;;6.70;2.05;;;;;;;19.98;45.63;101903.59;5054420;28;20160;-69
2022/11/02 10:08:23;;;;;;;9.48;1.92;;;;;;;20.12;45.72;101907.78;5063427;28;20052;-70
2022/11/02 10:11:23;;;;;;;8.85;2.08;;;;;;;20.27;45.43;101906.31;4991890;28;20156;-70
2022/11/02 10:13:53;;;;;;;12.75;2.45;;;;;;;20.33;45.22;101910.31;5072063;28;20788;-69
2022/11/02 10:16:54;;;;;;;12.18;2.72;;;;;;;20.35;44.84;101916.50;5055096;28;20434;-70
2022/11/02 10:19:22;;;;;;;11.23;2.50;;;;;;;20.39;44.87;101923.38;5046248;28;20102;-70
2022/11/02 10:21:57;;;;;;;8.93;2.28;;;;;;;20.40;44.74;101927.84;5073778;28;20255;-70
2022/11/02 10:24:53;;;;;;;11.00;2.72;;;;;;;20.37;44.18;101930.84;5074036;28;20050;-70
2022/11/02 10:27:25;;;;;;;10.40;2.15;;;;;;;20.37;44.01;101930.84;5069793;28;20048;-69
2022/11/02 10:30:10;;;;;;;7.95;2.05;;;;;;;20.35;44.15;101941.03;5073111;28;20082;-70
2022/11/02 10:32:39;;;;;;;8.68;1.90;;;;;;;20.41;44.28;101941.34;5073701;28;20032;-69
2022/11/02 10:35:26;;;;;;;8.82;1.95;;;;;;;20.45;44.05;101950.09;5073486;28;20068;-70
2022/11/02 10:38:24;;;;;;;6.68;2.08;;;;;;;20.49;44.12;101949.66;5073695;28;20115;-70
2022/11/02 10:41:40;;;;;;;10.68;2.45;;;;;;;20.45;43.88;101955.56;5073054;28;20051;-69
2022/11/02 10:44:53;;;;;;;11.60;2.35;;;;;;;20.45;43.87;101947.38;5049103;28;20065;-69
2022/11/02 10:47:22;;;;;;;11.77;2.42;;;;;;;20.49;44.06;101941.47;5053587;28;20094;-69
2022/11/02 10:50:13;;;;;;;8.27;2.60;;;;;;;20.56;43.74;101944.47;5053468;28;20094;-69
2022/11/02 10:52:45;;;;;;;7.43;1.77;;;;;;;20.67;43.94;101943.44;5054387;28;20096;-70
2022/11/02 10:55:23;;;;;;;9.43;2.03;;;;;;;20.74;43.73;101947.31;5053380;28;20045;-70
2022/11/02 10:57:53;;;;;;;8.70;2.13;;;;;;;20.80;43.94;101953.03;5053693;28;20037;-71
2022/11/02 11:00:22;;;;;;;8.75;2.22;;;;;;;20.86;43.14;101959.81;5052886;28;20060;-69
2022/11/02 11:03:11;;;;;;;11.65;2.03;;;;;;;20.89;43.28;101954.91;5067519;28;20506;-70
2022/11/02 11:06:00;;;;;;;7.43;1.92;;;;;;;20.93;42.79;101964.50;5053157;28;20045;-68
2022/11/02 11:08:40;;;;;;;4.78;1.73;;;;;;;20.93;42.86;101960.91;5053001;28;20487;-68
2022/11/02 11:11:18;;;;;;;11.00;2.45;;;;;;;20.88;42.44;101958.63;5053788;28;20395;-67
2022/11/02 11:13:54;;;;;;;10.65;2.35;;;;;;;20.91;42.44;101961.06;5052942;28;20090;-68
2022/11/02 11:16:48;;;;;;;7.18;1.77;;;;;;;20.99;42.35;101965.78;5053814;28;20041;-67
2022/11/02 11:19:22;;;;;;;6.55;1.85;;;;;;;21.07;42.41;101965.91;5053516;28;20430;-68
2022/11/02 11:22:29;;;;;;;10.50;2.20;;;;;;;21.22;42.48;101960.78;5052789;28;20481;-67
2022/11/02 11:25:11;;;;;;;9.27;2.17;;;;;;;21.35;42.39;101968.69;5052947;28;20441;-67
2022/11/02 11:27:46;;;;;;;7.13;2.08;;;;;;;21.44;42.17;101959.56;5052705;28;20044;-67
2022/11/02 11:30:34;;;;;;;9.95;2.70;;;;;;;21.53;41.99;101961.38;5054203;28;20041;-71
2022/11/02 11:33:21;;;;;;;5.63;1.80;;;;;;;21.65;41.87;101951.13;5052561;28;20123;-67
2022/11/02 11:35:50;;;;;;;8.40;2.03;;;;;;;21.67;41.27;101954.56;5072221;28;20033;-67
2022/11/02 11:38:21;;;;;;;7.38;1.67;;;;;;;21.68;41.19;101956.28;5072616;28;20044;-67
2022/11/02 11:40:52;;;;;;;6.88;1.55;;;;;;;21.72;40.83;101960.41;5070734;28;20056;-68
2022/11/02 11:43:22;;;;;;;5.85;1.80;;;;;;;21.75;40.89;101955.50;5073162;28;20483;-67
2022/11/02 11:45:58;;;;;;;10.18;2.22;;;;;;;21.83;40.81;101938.31;5054369;28;20396;-66
2022/11/02 11:48:39;;;;;;;6.72;1.42;;;;;;;21.87;40.45;101940.59;5070581;28;20717;-67
2022/11/02 11:51:27;;;;;;;7.78;2.17;;;;;;;21.86;40.42;101935.28;5052214;28;20173;-68
2022/11/02 11:54:26;;;;;;;9.52;1.92;;;;;;;21.94;40.27;101943.56;5051758;28;20061;-67
2022/11/02 11:56:55;;;;;;;3.88;1.50;;;;;;;22.03;40.42;101925.38;5056723;28;20036;-67
2022/11/02 11:59:28;;;;;;;10.90;1.90;;;;;;;22.08;40.04;101932.09;5071987;28;20043;-67
2022/11/02 12:01:59;;;;;;;8.55;2.00;;;;;;;22.12;39.69;101935.38;5071405;28;20044;-67
2022/11/02 12:04:33;;;;;;;6.97;1.70;;;;;;;22.14;39.43;101931.47;5071813;28;20502;-67
2022/11/02 12:07:19;;;;;;;10.05;2.05;;;;;;;22.17;39.59;101936.63;5071632;28;20029;-68
2022/11/02 12:09:55;;;;;;;7.60;1.80;;;;;;;22.24;39.45;101935.97;5071118;28;20049;-67